sensor_id;sensor_type;location;lat;lon;timestamp;pressure;altitude;pressure_sealevel;temperature;humidity
34065;BME280;20339;49.754;20.158;2023-11-18T00:02:15;96563.14;;;1.13;100.00
34065;BME280;20339;49.754;20.158;2023-11-18T00:04:46;96567.85;;;1.13;100.00
34065;BME280;20339;49.754;20.158;2023-11-18T00:07:17;96562.56;;;1.15;100.00
34065;BME280;20339;49.754;20.158;2023-11-18T00:09:50;96565.89;;;1.16;100.00
34065;BME280;20339;49.754;20.158;2023-11-18T00:12:22;96567.73;;;1.17;100.00
34065;BME280;20339;49.754;20.158;2023-11-18T00:14:54;96572.27;;;1.17;100.00
34065;BME280;20339;49.754;20.158;2023-11-18T00:17:25;96568.49;;;1.16;100.00
34065;BME280;20339;49.754;20.158;2023-11-18T00:19:56;96573.29;;;1.16;100.00
34065;BME280;20339;49.754;20.158;2023-11-18T00:22:27;96573.04;;;1.16;100.00
34065;BME280;20339;49.754;20.158;2023-11-18T00:25:02;96576.75;;;1.14;100.00
34065;BME280;20339;49.754;20.158;2023-11-18T00:27:35;96581.70;;;1.14;100.00
34065;BME280;20339;49.754;20.158;2023-11-18T00:30:08;96582.74;;;1.14;100.00
34065;BME280;20339;49.754;20.158;2023-11-18T00:32:40;96586.48;;;1.13;100.00
34065;BME280;20339;49.754;20.158;2023-11-18T00:35:11;96592.19;;;1.14;100.00
34065;BME280;20339;49.754;20.158;2023-11-18T00:37:42;96594.96;;;1.13;100.00
34065;BME280;20339;49.754;20.158;2023-11-18T00:40:14;96596.23;;;1.12;100.00
34065;BME280;20339;49.754;20.158;2023-11-18T00:42:47;96600.18;;;1.13;100.00
34065;BME280;20339;49.754;20.158;2023-11-18T00:45:18;96599.26;;;1.12;100.00
34065;BME280;20339;49.754;20.158;2023-11-18T00:47:51;96600.16;;;1.10;100.00
34065;BME280;20339;49.754;20.158;2023-11-18T00:50:22;96608.93;;;1.08;100.00
34065;BME280;20339;49.754;20.158;2023-11-18T00:52:53;96606.55;;;1.07;100.00
34065;BME280;20339;49.754;20.158;2023-11-18T00:55:24;96605.61;;;1.07;100.00
34065;BME280;20339;49.754;20.158;2023-11-18T00:57:55;96603.70;;;1.06;100.00
34065;BME280;20339;49.754;20.158;2023-11-18T01:00:26;96604.29;;;1.05;100.00
34065;BME280;20339;49.754;20.158;2023-11-18T01:02:57;96602.33;;;1.04;100.00
34065;BME280;20339;49.754;20.158;2023-11-18T01:05:29;96602.89;;;1.03;100.00
34065;BME280;20339;49.754;20.158;2023-11-18T01:08:00;96604.71;;;1.03;100.00
34065;BME280;20339;49.754;20.158;2023-11-18T01:10:32;96606.19;;;1.04;100.00
34065;BME280;20339;49.754;20.158;2023-11-18T01:13:05;96605.13;;;1.05;100.00
34065;BME280;20339;49.754;20.158;2023-11-18T01:15:38;96600.98;;;1.06;100.00
34065;BME280;20339;49.754;20.158;2023-11-18T01:18:09;96603.23;;;1.08;100.00
34065;BME280;20339;49.754;20.158;2023-11-18T01:20:40;96599.97;;;1.09;100.00
34065;BME280;20339;49.754;20.158;2023-11-18T01:23:11;96605.70;;;1.10;100.00
34065;BME280;20339;49.754;20.158;2023-11-18T01:25:42;96599.30;;;1.13;100.00
34065;BME280;20339;49.754;20.158;2023-11-18T01:28:16;96605.40;;;1.14;100.00
34065;BME280;20339;49.754;20.158;2023-11-18T01:30:47;96600.05;;;1.15;100.00
34065;BME280;20339;49.754;20.158;2023-11-18T01:33:18;96599.20;;;1.14;100.00
34065;BME280;20339;49.754;20.158;2023-11-18T01:35:49;96602.59;;;1.14;100.00
34065;BME280;20339;49.754;20.158;2023-11-18T01:38:20;96605.61;;;1.14;100.00
34065;BME280;20339;49.754;20.158;2023-11-18T01:40:53;96603.64;;;1.13;100.00
34065;BME280;20339;49.754;20.158;2023-11-18T01:43:24;96603.67;;;1.12;100.00
34065;BME280;20339;49.754;20.158;2023-11-18T01:45:55;96604.02;;;1.11;100.00
34065;BME280;20339;49.754;20.158;2023-11-18T01:48:27;96610.40;;;1.10;100.00
34065;BME280;20339;49.754;20.158;2023-11-18T01:50:59;96609.67;;;1.11;100.00
34065;BME280;20339;49.754;20.158;2023-11-18T01:53:32;96611.35;;;1.12;100.00
34065;BME280;20339;49.754;20.158;2023-11-18T01:56:07;96607.52;;;1.12;100.00
34065;BME280;20339;49.754;20.158;2023-11-18T01:58:38;96603.95;;;1.12;100.00
34065;BME280;20339;49.754;20.158;2023-11-18T02:01:10;96606.75;;;1.10;100.00
34065;BME280;20339;49.754;20.158;2023-11-18T02:03:48;96607.60;;;1.09;100.00
34065;BME280;20339;49.754;20.158;2023-11-18T02:06:19;96606.71;;;1.09;100.00
34065;BME280;20339;49.754;20.158;2023-11-18T02:08:50;96608.64;;;1.09;100.00
34065;BME280;20339;49.754;20.158;2023-11-18T02:11:30;96605.75;;;1.10;100.00
34065;BME280;20339;49.754;20.158;2023-11-18T02:14:02;96613.65;;;1.11;100.00
34065;BME280;20339;49.754;20.158;2023-11-18T02:16:41;96611.23;;;1.13;100.00
34065;BME280;20339;49.754;20.158;2023-11-18T02:19:19;96608.95;;;1.16;100.00
34065;BME280;20339;49.754;20.158;2023-11-18T02:21:53;96606.41;;;1.16;100.00
34065;BME280;20339;49.754;20.158;2023-11-18T02:24:30;96610.41;;;1.18;100.00
34065;BME280;20339;49.754;20.158;2023-11-18T02:27:06;96616.79;;;1.18;100.00
34065;BME280;20339;49.754;20.158;2023-11-18T02:29:42;96610.39;;;1.19;100.00
34065;BME280;20339;49.754;20.158;2023-11-18T02:32:20;96609.79;;;1.20;100.00
34065;BME280;20339;49.754;20.158;2023-11-18T02:35:01;96607.05;;;1.20;100.00
34065;BME280;20339;49.754;20.158;2023-11-18T02:37:42;96607.63;;;1.19;100.00
34065;BME280;20339;49.754;20.158;2023-11-18T02:40:19;96608.73;;;1.16;100.00
34065;BME280;20339;49.754;20.158;2023-11-18T02:42:53;96608.30;;;1.12;100.00
34065;BME280;20339;49.754;20.158;2023-11-18T02:45:25;96616.05;;;1.11;100.00
34065;BME280;20339;49.754;20.158;2023-11-18T02:47:57;96609.59;;;1.13;100.00
34065;BME280;20339;49.754;20.158;2023-11-18T02:50:29;96614.95;;;1.14;100.00
34065;BME280;20339;49.754;20.158;2023-11-18T02:53:01;96613.54;;;1.18;100.00
34065;BME280;20339;49.754;20.158;2023-11-18T02:55:33;96616.57;;;1.20;100.00
34065;BME280;20339;49.754;20.158;2023-11-18T02:58:04;96618.91;;;1.19;100.00
34065;BME280;20339;49.754;20.158;2023-11-18T03:00:35;96619.27;;;1.19;100.00
34065;BME280;20339;49.754;20.158;2023-11-18T03:03:08;96620.34;;;1.13;100.00
34065;BME280;20339;49.754;20.158;2023-11-18T03:05:39;96618.11;;;1.08;100.00
34065;BME280;20339;49.754;20.158;2023-11-18T03:08:10;96614.24;;;1.08;100.00
34065;BME280;20339;49.754;20.158;2023-11-18T03:10:41;96617.82;;;1.11;100.00
34065;BME280;20339;49.754;20.158;2023-11-18T03:13:13;96622.18;;;1.12;100.00
34065;BME280;20339;49.754;20.158;2023-11-18T03:15:44;96621.71;;;1.13;100.00
34065;BME280;20339;49.754;20.158;2023-11-18T03:18:17;96622.23;;;1.13;100.00
34065;BME280;20339;49.754;20.158;2023-11-18T03:20:49;96627.13;;;1.13;100.00
34065;BME280;20339;49.754;20.158;2023-11-18T03:23:21;96626.86;;;1.11;100.00
34065;BME280;20339;49.754;20.158;2023-11-18T03:25:52;96627.64;;;1.09;100.00
34065;BME280;20339;49.754;20.158;2023-11-18T03:28:23;96626.73;;;1.08;100.00
34065;BME280;20339;49.754;20.158;2023-11-18T03:30:55;96634.92;;;1.08;100.00
34065;BME280;20339;49.754;20.158;2023-11-18T03:33:35;96633.41;;;1.11;100.00
34065;BME280;20339;49.754;20.158;2023-11-18T03:36:05;96632.27;;;1.13;100.00
34065;BME280;20339;49.754;20.158;2023-11-18T03:38:36;96627.67;;;1.15;100.00
34065;BME280;20339;49.754;20.158;2023-11-18T03:41:07;96628.02;;;1.14;100.00
34065;BME280;20339;49.754;20.158;2023-11-18T03:43:39;96629.98;;;1.12;100.00
34065;BME280;20339;49.754;20.158;2023-11-18T03:46:10;96635.61;;;1.12;100.00
34065;BME280;20339;49.754;20.158;2023-11-18T03:48:43;96634.64;;;1.12;100.00
34065;BME280;20339;49.754;20.158;2023-11-18T03:51:14;96635.88;;;1.15;100.00
34065;BME280;20339;49.754;20.158;2023-11-18T03:53:47;96637.21;;;1.16;100.00
34065;BME280;20339;49.754;20.158;2023-11-18T03:56:19;96639.91;;;1.19;100.00
34065;BME280;20339;49.754;20.158;2023-11-18T03:58:52;96640.30;;;1.23;100.00
34065;BME280;20339;49.754;20.158;2023-11-18T04:01:24;96640.00;;;1.25;100.00
34065;BME280;20339;49.754;20.158;2023-11-18T04:03:56;96637.75;;;1.26;100.00
34065;BME280;20339;49.754;20.158;2023-11-18T04:06:27;96648.59;;;1.31;100.00
34065;BME280;20339;49.754;20.158;2023-11-18T04:08:58;96655.27;;;1.34;100.00
34065;BME280;20339;49.754;20.158;2023-11-18T04:11:29;96654.83;;;1.36;100.00
34065;BME280;20339;49.754;20.158;2023-11-18T04:14:03;96654.48;;;1.37;100.00
34065;BME280;20339;49.754;20.158;2023-11-18T04:16:34;96650.05;;;1.39;100.00
34065;BME280;20339;49.754;20.158;2023-11-18T04:19:05;96643.64;;;1.40;100.00
34065;BME280;20339;49.754;20.158;2023-11-18T04:21:36;96648.44;;;1.39;100.00
34065;BME280;20339;49.754;20.158;2023-11-18T04:24:08;96653.50;;;1.39;100.00
34065;BME280;20339;49.754;20.158;2023-11-18T04:26:39;96656.36;;;1.39;100.00
34065;BME280;20339;49.754;20.158;2023-11-18T04:29:10;96654.16;;;1.35;100.00
34065;BME280;20339;49.754;20.158;2023-11-18T04:31:41;96652.55;;;1.32;100.00
34065;BME280;20339;49.754;20.158;2023-11-18T04:34:12;96650.23;;;1.34;100.00
34065;BME280;20339;49.754;20.158;2023-11-18T04:36:44;96650.77;;;1.34;100.00
34065;BME280;20339;49.754;20.158;2023-11-18T04:39:15;96649.40;;;1.36;100.00
34065;BME280;20339;49.754;20.158;2023-11-18T04:41:48;96646.30;;;1.37;100.00
34065;BME280;20339;49.754;20.158;2023-11-18T04:44:19;96647.95;;;1.36;100.00
34065;BME280;20339;49.754;20.158;2023-11-18T04:46:49;96645.45;;;1.37;100.00
34065;BME280;20339;49.754;20.158;2023-11-18T04:49:20;96647.05;;;1.36;100.00
34065;BME280;20339;49.754;20.158;2023-11-18T04:51:51;96649.79;;;1.35;100.00
34065;BME280;20339;49.754;20.158;2023-11-18T04:54:22;96644.45;;;1.34;100.00
34065;BME280;20339;49.754;20.158;2023-11-18T04:56:54;96644.81;;;1.34;100.00
34065;BME280;20339;49.754;20.158;2023-11-18T04:59:25;96643.77;;;1.34;100.00
34065;BME280;20339;49.754;20.158;2023-11-18T05:01:56;96650.64;;;1.36;100.00
34065;BME280;20339;49.754;20.158;2023-11-18T05:04:27;96652.06;;;1.36;100.00
34065;BME280;20339;49.754;20.158;2023-11-18T05:06:57;96648.22;;;1.37;100.00
34065;BME280;20339;49.754;20.158;2023-11-18T05:09:29;96652.33;;;1.37;100.00
34065;BME280;20339;49.754;20.158;2023-11-18T05:12:04;96653.04;;;1.37;100.00
34065;BME280;20339;49.754;20.158;2023-11-18T05:14:36;96657.33;;;1.38;100.00
34065;BME280;20339;49.754;20.158;2023-11-18T05:17:07;96656.31;;;1.37;100.00
34065;BME280;20339;49.754;20.158;2023-11-18T05:19:38;96655.86;;;1.37;100.00
34065;BME280;20339;49.754;20.158;2023-11-18T05:22:10;96655.52;;;1.38;100.00
34065;BME280;20339;49.754;20.158;2023-11-18T05:24:41;96662.65;;;1.40;100.00
34065;BME280;20339;49.754;20.158;2023-11-18T05:27:12;96660.45;;;1.40;100.00
34065;BME280;20339;49.754;20.158;2023-11-18T05:29:43;96669.17;;;1.42;100.00
34065;BME280;20339;49.754;20.158;2023-11-18T05:32:16;96670.42;;;1.44;100.00
34065;BME280;20339;49.754;20.158;2023-11-18T05:34:47;96666.23;;;1.45;100.00
34065;BME280;20339;49.754;20.158;2023-11-18T05:37:18;96671.17;;;1.45;100.00
34065;BME280;20339;49.754;20.158;2023-11-18T05:39:49;96682.02;;;1.46;100.00
34065;BME280;20339;49.754;20.158;2023-11-18T05:42:28;96681.09;;;1.48;100.00
34065;BME280;20339;49.754;20.158;2023-11-18T05:45:00;96674.62;;;1.48;100.00
34065;BME280;20339;49.754;20.158;2023-11-18T05:47:31;96681.27;;;1.45;100.00
34065;BME280;20339;49.754;20.158;2023-11-18T05:50:02;96685.69;;;1.44;100.00
34065;BME280;20339;49.754;20.158;2023-11-18T05:52:35;96687.71;;;1.43;100.00
34065;BME280;20339;49.754;20.158;2023-11-18T05:55:06;96688.21;;;1.45;100.00
34065;BME280;20339;49.754;20.158;2023-11-18T05:57:38;96690.27;;;1.45;100.00
34065;BME280;20339;49.754;20.158;2023-11-18T06:00:11;96694.17;;;1.43;100.00
34065;BME280;20339;49.754;20.158;2023-11-18T06:02:45;96696.48;;;1.43;100.00
34065;BME280;20339;49.754;20.158;2023-11-18T06:05:16;96695.52;;;1.43;100.00
34065;BME280;20339;49.754;20.158;2023-11-18T06:07:47;96693.04;;;1.40;100.00
34065;BME280;20339;49.754;20.158;2023-11-18T06:10:19;96706.20;;;1.37;100.00
34065;BME280;20339;49.754;20.158;2023-11-18T06:12:51;96701.32;;;1.36;100.00
34065;BME280;20339;49.754;20.158;2023-11-18T06:15:22;96706.04;;;1.35;100.00
34065;BME280;20339;49.754;20.158;2023-11-18T06:17:54;96707.83;;;1.33;100.00
34065;BME280;20339;49.754;20.158;2023-11-18T06:20:25;96709.30;;;1.34;100.00
34065;BME280;20339;49.754;20.158;2023-11-18T06:22:57;96712.35;;;1.34;100.00
34065;BME280;20339;49.754;20.158;2023-11-18T06:25:28;96713.95;;;1.35;100.00
34065;BME280;20339;49.754;20.158;2023-11-18T06:28:01;96710.31;;;1.36;100.00
34065;BME280;20339;49.754;20.158;2023-11-18T06:30:33;96713.49;;;1.36;100.00
34065;BME280;20339;49.754;20.158;2023-11-18T06:33:06;96717.31;;;1.36;100.00
34065;BME280;20339;49.754;20.158;2023-11-18T06:35:38;96714.54;;;1.36;100.00
34065;BME280;20339;49.754;20.158;2023-11-18T06:38:10;96721.77;;;1.37;100.00
34065;BME280;20339;49.754;20.158;2023-11-18T06:40:42;96718.58;;;1.38;100.00
34065;BME280;20339;49.754;20.158;2023-11-18T06:43:13;96725.42;;;1.39;100.00
34065;BME280;20339;49.754;20.158;2023-11-18T06:45:46;96722.45;;;1.40;100.00
34065;BME280;20339;49.754;20.158;2023-11-18T06:48:18;96727.60;;;1.41;100.00
34065;BME280;20339;49.754;20.158;2023-11-18T06:50:52;96726.89;;;1.44;100.00
34065;BME280;20339;49.754;20.158;2023-11-18T06:53:23;96728.92;;;1.45;100.00
34065;BME280;20339;49.754;20.158;2023-11-18T06:55:56;96723.08;;;1.46;100.00
34065;BME280;20339;49.754;20.158;2023-11-18T06:58:27;96728.96;;;1.47;100.00
34065;BME280;20339;49.754;20.158;2023-11-18T07:01:01;96733.44;;;1.47;100.00
34065;BME280;20339;49.754;20.158;2023-11-18T07:03:32;96726.70;;;1.48;100.00
34065;BME280;20339;49.754;20.158;2023-11-18T07:06:05;96728.55;;;1.49;100.00
34065;BME280;20339;49.754;20.158;2023-11-18T07:08:36;96735.45;;;1.49;100.00
34065;BME280;20339;49.754;20.158;2023-11-18T07:11:07;96730.84;;;1.48;100.00
34065;BME280;20339;49.754;20.158;2023-11-18T07:13:41;96735.75;;;1.48;100.00
34065;BME280;20339;49.754;20.158;2023-11-18T07:16:12;96737.91;;;1.49;100.00
34065;BME280;20339;49.754;20.158;2023-11-18T07:18:44;96738.59;;;1.49;100.00
34065;BME280;20339;49.754;20.158;2023-11-18T07:21:15;96739.01;;;1.49;100.00
34065;BME280;20339;49.754;20.158;2023-11-18T07:23:47;96739.37;;;1.49;100.00
34065;BME280;20339;49.754;20.158;2023-11-18T07:26:20;96735.48;;;1.48;100.00
34065;BME280;20339;49.754;20.158;2023-11-18T07:28:52;96743.48;;;1.44;100.00
34065;BME280;20339;49.754;20.158;2023-11-18T07:31:23;96740.94;;;1.40;100.00
34065;BME280;20339;49.754;20.158;2023-11-18T07:33:54;96740.95;;;1.39;100.00
34065;BME280;20339;49.754;20.158;2023-11-18T07:36:26;96743.63;;;1.40;100.00
34065;BME280;20339;49.754;20.158;2023-11-18T07:39:03;96740.13;;;1.40;100.00
34065;BME280;20339;49.754;20.158;2023-11-18T07:41:34;96741.95;;;1.36;100.00
34065;BME280;20339;49.754;20.158;2023-11-18T07:44:06;96744.97;;;1.28;100.00
34065;BME280;20339;49.754;20.158;2023-11-18T07:46:40;96745.20;;;1.23;100.00
34065;BME280;20339;49.754;20.158;2023-11-18T07:49:13;96751.68;;;1.18;100.00
34065;BME280;20339;49.754;20.158;2023-11-18T07:51:46;96755.82;;;1.15;100.00
34065;BME280;20339;49.754;20.158;2023-11-18T07:54:17;96755.02;;;1.13;100.00
34065;BME280;20339;49.754;20.158;2023-11-18T07:56:47;96753.09;;;1.12;100.00
34065;BME280;20339;49.754;20.158;2023-11-18T07:59:19;96757.35;;;1.12;100.00
34065;BME280;20339;49.754;20.158;2023-11-18T08:01:53;96750.98;;;1.17;100.00
34065;BME280;20339;49.754;20.158;2023-11-18T08:04:26;96750.08;;;1.23;100.00
34065;BME280;20339;49.754;20.158;2023-11-18T08:06:57;96753.65;;;1.27;100.00
34065;BME280;20339;49.754;20.158;2023-11-18T08:09:29;96751.68;;;1.31;100.00
34065;BME280;20339;49.754;20.158;2023-11-18T08:12:04;96756.80;;;1.34;100.00
34065;BME280;20339;49.754;20.158;2023-11-18T08:14:38;96758.80;;;1.37;100.00
34065;BME280;20339;49.754;20.158;2023-11-18T08:17:09;96772.84;;;1.33;100.00
34065;BME280;20339;49.754;20.158;2023-11-18T08:19:42;96775.83;;;1.35;100.00
34065;BME280;20339;49.754;20.158;2023-11-18T08:22:14;96774.53;;;1.40;100.00
34065;BME280;20339;49.754;20.158;2023-11-18T08:24:49;96780.98;;;1.47;100.00
34065;BME280;20339;49.754;20.158;2023-11-18T08:27:20;96787.09;;;1.55;100.00
34065;BME280;20339;49.754;20.158;2023-11-18T08:29:51;96791.63;;;1.60;100.00
34065;BME280;20339;49.754;20.158;2023-11-18T08:32:22;96796.45;;;1.64;100.00
34065;BME280;20339;49.754;20.158;2023-11-18T08:34:55;96797.64;;;1.70;100.00
34065;BME280;20339;49.754;20.158;2023-11-18T08:37:26;96798.63;;;1.74;100.00
34065;BME280;20339;49.754;20.158;2023-11-18T08:39:57;96801.44;;;1.75;100.00
34065;BME280;20339;49.754;20.158;2023-11-18T08:42:30;96806.67;;;1.77;100.00
34065;BME280;20339;49.754;20.158;2023-11-18T08:45:02;96808.43;;;1.75;100.00
34065;BME280;20339;49.754;20.158;2023-11-18T08:47:33;96817.00;;;1.73;100.00
34065;BME280;20339;49.754;20.158;2023-11-18T08:50:05;96814.52;;;1.70;100.00
34065;BME280;20339;49.754;20.158;2023-11-18T08:52:42;96817.58;;;1.69;100.00
34065;BME280;20339;49.754;20.158;2023-11-18T08:55:19;96823.52;;;1.66;100.00
34065;BME280;20339;49.754;20.158;2023-11-18T08:57:51;96833.66;;;1.64;100.00
34065;BME280;20339;49.754;20.158;2023-11-18T09:00:30;96843.10;;;1.62;100.00
34065;BME280;20339;49.754;20.158;2023-11-18T09:03:24;96846.14;;;1.60;100.00
34065;BME280;20339;49.754;20.158;2023-11-18T09:05:59;96846.15;;;1.59;100.00
34065;BME280;20339;49.754;20.158;2023-11-18T09:08:36;96843.73;;;1.56;100.00
34065;BME280;20339;49.754;20.158;2023-11-18T09:11:08;96850.57;;;1.53;100.00
34065;BME280;20339;49.754;20.158;2023-11-18T09:13:44;96853.80;;;1.42;100.00
34065;BME280;20339;49.754;20.158;2023-11-18T09:16:19;96851.48;;;1.43;100.00
34065;BME280;20339;49.754;20.158;2023-11-18T09:18:54;96853.81;;;1.50;100.00
34065;BME280;20339;49.754;20.158;2023-11-18T09:21:28;96852.98;;;1.53;100.00
34065;BME280;20339;49.754;20.158;2023-11-18T09:24:04;96853.92;;;1.46;100.00
34065;BME280;20339;49.754;20.158;2023-11-18T09:26:37;96852.48;;;1.46;100.00
34065;BME280;20339;49.754;20.158;2023-11-18T09:29:09;96856.09;;;1.47;100.00
34065;BME280;20339;49.754;20.158;2023-11-18T09:31:40;96857.16;;;1.44;100.00
34065;BME280;20339;49.754;20.158;2023-11-18T09:34:14;96857.55;;;1.42;100.00
34065;BME280;20339;49.754;20.158;2023-11-18T09:36:56;96856.63;;;1.40;100.00
34065;BME280;20339;49.754;20.158;2023-11-18T09:39:28;96859.48;;;1.39;100.00
34065;BME280;20339;49.754;20.158;2023-11-18T09:42:08;96854.92;;;1.37;100.00
34065;BME280;20339;49.754;20.158;2023-11-18T09:44:41;96848.11;;;1.41;100.00
34065;BME280;20339;49.754;20.158;2023-11-18T09:47:14;96848.17;;;1.47;100.00
34065;BME280;20339;49.754;20.158;2023-11-18T09:49:58;96841.95;;;1.50;100.00
34065;BME280;20339;49.754;20.158;2023-11-18T09:52:34;96841.86;;;1.53;100.00
34065;BME280;20339;49.754;20.158;2023-11-18T09:55:11;96844.50;;;1.54;100.00
34065;BME280;20339;49.754;20.158;2023-11-18T09:57:55;96843.08;;;1.51;100.00
34065;BME280;20339;49.754;20.158;2023-11-18T10:00:30;96841.10;;;1.42;100.00
34065;BME280;20339;49.754;20.158;2023-11-18T10:03:07;96839.13;;;1.34;100.00
34065;BME280;20339;49.754;20.158;2023-11-18T10:05:43;96845.19;;;1.25;100.00
34065;BME280;20339;49.754;20.158;2023-11-18T10:08:15;96852.81;;;1.16;100.00
34065;BME280;20339;49.754;20.158;2023-11-18T10:10:47;96858.80;;;1.04;100.00
34065;BME280;20339;49.754;20.158;2023-11-18T10:13:20;96859.93;;;0.96;100.00
34065;BME280;20339;49.754;20.158;2023-11-18T10:15:52;96851.14;;;0.90;100.00
34065;BME280;20339;49.754;20.158;2023-11-18T10:18:25;96854.67;;;0.91;100.00
34065;BME280;20339;49.754;20.158;2023-11-18T10:20:58;96861.66;;;0.95;100.00
34065;BME280;20339;49.754;20.158;2023-11-18T10:23:29;96861.64;;;1.00;100.00
34065;BME280;20339;49.754;20.158;2023-11-18T10:26:03;96859.95;;;1.06;100.00
34065;BME280;20339;49.754;20.158;2023-11-18T10:28:37;96863.08;;;1.13;100.00
34065;BME280;20339;49.754;20.158;2023-11-18T10:31:08;96864.27;;;1.16;100.00
34065;BME280;20339;49.754;20.158;2023-11-18T10:33:41;96866.75;;;1.16;100.00
34065;BME280;20339;49.754;20.158;2023-11-18T10:36:20;96870.51;;;1.14;100.00
34065;BME280;20339;49.754;20.158;2023-11-18T10:38:54;96875.63;;;1.10;100.00
34065;BME280;20339;49.754;20.158;2023-11-18T10:41:26;96874.46;;;1.09;100.00
34065;BME280;20339;49.754;20.158;2023-11-18T10:44:10;96871.30;;;1.07;100.00
34065;BME280;20339;49.754;20.158;2023-11-18T10:46:53;96881.03;;;0.93;100.00
34065;BME280;20339;49.754;20.158;2023-11-18T10:49:28;96886.44;;;0.85;100.00
34065;BME280;20339;49.754;20.158;2023-11-18T10:52:07;96893.13;;;0.83;100.00
34065;BME280;20339;49.754;20.158;2023-11-18T10:54:51;96898.67;;;0.85;100.00
34065;BME280;20339;49.754;20.158;2023-11-18T10:57:24;96903.61;;;0.83;100.00
34065;BME280;20339;49.754;20.158;2023-11-18T11:00:02;96909.35;;;0.86;100.00
34065;BME280;20339;49.754;20.158;2023-11-18T11:02:43;96915.57;;;0.94;100.00
34065;BME280;20339;49.754;20.158;2023-11-18T11:05:29;96920.45;;;0.90;100.00
34065;BME280;20339;49.754;20.158;2023-11-18T11:08:03;96922.88;;;0.85;100.00
34065;BME280;20339;49.754;20.158;2023-11-18T11:10:35;96927.42;;;0.81;100.00
34065;BME280;20339;49.754;20.158;2023-11-18T11:13:12;96935.06;;;0.75;100.00
34065;BME280;20339;49.754;20.158;2023-11-18T11:15:47;96935.45;;;0.77;100.00
34065;BME280;20339;49.754;20.158;2023-11-18T11:18:29;96936.17;;;0.83;100.00
34065;BME280;20339;49.754;20.158;2023-11-18T11:21:12;96942.72;;;0.87;100.00
34065;BME280;20339;49.754;20.158;2023-11-18T11:23:53;96935.75;;;0.80;100.00
34065;BME280;20339;49.754;20.158;2023-11-18T11:26:38;96932.53;;;0.65;100.00
34065;BME280;20339;49.754;20.158;2023-11-18T11:29:29;96943.52;;;0.58;100.00
34065;BME280;20339;49.754;20.158;2023-11-18T11:32:14;96950.38;;;0.66;100.00
34065;BME280;20339;49.754;20.158;2023-11-18T11:34:55;96960.89;;;0.72;100.00
34065;BME280;20339;49.754;20.158;2023-11-18T11:37:29;96963.73;;;0.74;100.00
34065;BME280;20339;49.754;20.158;2023-11-18T11:40:02;96962.70;;;0.72;100.00
34065;BME280;20339;49.754;20.158;2023-11-18T11:42:41;96966.70;;;0.68;100.00
34065;BME280;20339;49.754;20.158;2023-11-18T11:45:13;96966.77;;;0.69;100.00
34065;BME280;20339;49.754;20.158;2023-11-18T11:47:50;96971.48;;;0.66;100.00
34065;BME280;20339;49.754;20.158;2023-11-18T11:50:31;96976.33;;;0.64;100.00
34065;BME280;20339;49.754;20.158;2023-11-18T11:53:07;96976.95;;;0.57;100.00
34065;BME280;20339;49.754;20.158;2023-11-18T11:55:49;96975.53;;;0.47;100.00
34065;BME280;20339;49.754;20.158;2023-11-18T11:58:30;96986.40;;;0.42;100.00
34065;BME280;20339;49.754;20.158;2023-11-18T12:01:15;96986.92;;;0.42;100.00
34065;BME280;20339;49.754;20.158;2023-11-18T12:03:49;96989.30;;;0.46;100.00
34065;BME280;20339;49.754;20.158;2023-11-18T12:06:28;96994.67;;;0.46;100.00
34065;BME280;20339;49.754;20.158;2023-11-18T12:09:02;96995.39;;;0.41;100.00
34065;BME280;20339;49.754;20.158;2023-11-18T12:11:36;97002.84;;;0.36;100.00
34065;BME280;20339;49.754;20.158;2023-11-18T12:14:10;97008.98;;;0.33;100.00
34065;BME280;20339;49.754;20.158;2023-11-18T12:17:04;97009.56;;;0.39;100.00
34065;BME280;20339;49.754;20.158;2023-11-18T12:19:39;97009.45;;;0.39;100.00
34065;BME280;20339;49.754;20.158;2023-11-18T12:22:18;97007.02;;;0.34;100.00
34065;BME280;20339;49.754;20.158;2023-11-18T12:28:14;97017.23;;;0.36;100.00
34065;BME280;20339;49.754;20.158;2023-11-18T12:30:47;97023.86;;;0.38;100.00
34065;BME280;20339;49.754;20.158;2023-11-18T12:34:04;97021.59;;;0.33;100.00
34065;BME280;20339;49.754;20.158;2023-11-18T12:37:10;97030.81;;;0.32;100.00
34065;BME280;20339;49.754;20.158;2023-11-18T12:43:04;97035.60;;;0.19;100.00
34065;BME280;20339;49.754;20.158;2023-11-18T12:48:46;97033.45;;;0.17;100.00
34065;BME280;20339;49.754;20.158;2023-11-18T12:51:23;97037.48;;;0.12;100.00
34065;BME280;20339;49.754;20.158;2023-11-18T12:53:55;97027.45;;;0.11;100.00
34065;BME280;20339;49.754;20.158;2023-11-18T12:56:27;97033.35;;;0.09;100.00
34065;BME280;20339;49.754;20.158;2023-11-18T12:59:00;97038.73;;;0.10;100.00
34065;BME280;20339;49.754;20.158;2023-11-18T13:01:35;97043.30;;;0.14;100.00
34065;BME280;20339;49.754;20.158;2023-11-18T13:04:07;97043.58;;;0.15;100.00
34065;BME280;20339;49.754;20.158;2023-11-18T13:06:38;97047.95;;;0.15;100.00
34065;BME280;20339;49.754;20.158;2023-11-18T13:09:12;97052.33;;;0.14;100.00
34065;BME280;20339;49.754;20.158;2023-11-18T13:11:58;97062.58;;;0.12;100.00
34065;BME280;20339;49.754;20.158;2023-11-18T13:14:35;97072.52;;;0.11;100.00
34065;BME280;20339;49.754;20.158;2023-11-18T13:17:10;97078.34;;;0.11;100.00
34065;BME280;20339;49.754;20.158;2023-11-18T13:19:42;97080.07;;;0.08;100.00
34065;BME280;20339;49.754;20.158;2023-11-18T13:22:14;97089.46;;;0.04;100.00
34065;BME280;20339;49.754;20.158;2023-11-18T13:24:48;97091.39;;;0.03;100.00
34065;BME280;20339;49.754;20.158;2023-11-18T13:27:20;97102.05;;;0.04;100.00
34065;BME280;20339;49.754;20.158;2023-11-18T13:29:52;97103.48;;;0.05;100.00
34065;BME280;20339;49.754;20.158;2023-11-18T13:32:27;97103.77;;;0.07;100.00
34065;BME280;20339;49.754;20.158;2023-11-18T13:35:00;97111.75;;;0.10;100.00